Time;durP1;ratioP1;P1;durP2;ratioP2;P2;SDS_P1;SDS_P2;PMS_P1;PMS_P2;Temp;Humidity;BMP_temperature;BMP_pressure;BME280_temperature;BME280_humidity;BME280_pressure;Samples;Min_cycle;Max_cycle;Signal;HPM_P1;HPM_P2
2022/12/29 00:00:08;;;;;;;5.45;4.95;;;9.90;99.90;;;;;;5027648;28;20045;-84
2022/12/29 00:02:34;;;;;;;5.50;5.00;;;9.90;99.90;;;;;;5026904;28;20045;-83
2022/12/29 00:04:59;;;;;;;6.00;5.40;;;10.20;99.90;;;;;;5026383;28;20107;-83
2022/12/29 00:07:25;;;;;;;6.20;5.60;;;9.90;99.90;;;;;;5019718;28;20045;-83
2022/12/29 00:09:50;;;;;;;7.70;5.07;;;9.90;99.90;;;;;;5025550;28;20048;-83
2022/12/29 00:12:16;;;;;;;5.65;5.13;;;9.90;99.90;;;;;;5021363;28;20065;-82
2022/12/29 00:17:25;;;;;;;6.15;5.15;;;9.90;99.90;;;;;;5007646;28;20492;-83
2022/12/29 00:36:42;;;;;;;6.07;4.93;;;9.90;99.90;;;;;;5013235;28;20053;-83
2022/12/29 00:44:40;;;;;;;4.80;4.40;;;10.00;99.90;;;;;;5021143;28;20107;-85
2022/12/29 00:47:06;;;;;;;4.93;4.43;;;10.00;99.90;;;;;;5021590;28;20042;-83
2022/12/29 00:49:32;;;;;;;5.35;4.60;;;10.10;99.90;;;;;;5024794;28;20046;-83
2022/12/29 00:52:04;;;;;;;5.20;4.55;;;10.10;99.90;;;;;;5016631;28;20070;-83
2022/12/29 00:54:32;;;;;;;5.03;4.53;;;10.10;99.90;;;;;;5009574;28;20081;-83
2022/12/29 00:57:00;;;;;;;5.05;4.55;;;10.10;99.90;;;;;;5027191;28;20049;-83
2022/12/29 00:59:26;;;;;;;5.05;4.47;;;10.10;99.90;;;;;;5004732;28;20029;-85
2022/12/29 01:01:54;;;;;;;5.05;4.53;;;10.20;99.90;;;;;;5018421;28;20467;-84
2022/12/29 01:04:22;;;;;;;5.65;4.10;;;10.10;99.90;;;;;;5026572;28;20046;-83
2022/12/29 01:06:48;;;;;;;5.00;4.22;;;10.20;99.90;;;;;;5019273;28;20084;-83
2022/12/29 01:11:58;;;;;;;4.45;4.05;;;10.20;99.90;;;;;;5010741;28;20053;-84
2022/12/29 01:14:24;;;;;;;5.68;4.50;;;10.10;99.90;;;;;;5025347;28;20072;-84
2022/12/29 01:16:50;;;;;;;4.45;4.05;;;10.10;99.90;;;;;;5026562;28;20601;-84
2022/12/29 01:19:17;;;;;;;3.67;3.38;;;10.10;99.90;;;;;;5025506;28;20103;-83
2022/12/29 01:21:43;;;;;;;4.88;3.83;;;10.20;99.90;;;;;;5025539;28;20562;-84
2022/12/29 01:24:08;;;;;;;4.35;3.60;;;10.20;99.90;;;;;;5024558;28;20041;-83
2022/12/29 01:26:35;;;;;;;5.18;4.10;;;10.20;99.90;;;;;;5024936;28;20046;-84
2022/12/29 01:29:00;;;;;;;4.20;3.80;;;10.20;99.90;;;;;;5025311;28;20053;-83
2022/12/29 01:31:26;;;;;;;4.60;3.38;;;10.20;99.90;;;;;;5009103;28;20641;-84
2022/12/29 01:33:51;;;;;;;4.38;3.28;;;10.20;99.90;;;;;;5017751;28;20056;-83
2022/12/29 01:36:18;;;;;;;6.88;3.53;;;10.20;99.90;;;;;;5019121;28;20041;-84
2022/12/29 01:38:44;;;;;;;3.78;3.47;;;10.30;99.90;;;;;;5026030;28;20049;-84
2022/12/29 01:41:12;;;;;;;4.43;3.47;;;10.20;99.90;;;;;;5024025;28;20174;-84
2022/12/29 01:43:51;;;;;;;3.50;3.20;;;10.30;99.90;;;;;;5041715;28;20436;-83
2022/12/29 01:46:23;;;;;;;4.65;3.60;;;10.30;99.90;;;;;;5028359;28;20060;-84
2022/12/29 01:49:11;;;;;;;3.78;3.40;;;10.30;99.90;;;;;;5030630;28;20103;-84
2022/12/29 01:51:50;;;;;;;4.65;3.30;;;10.30;99.90;;;;;;5029648;28;20050;-82
2022/12/29 01:54:30;;;;;;;4.50;3.72;;;10.30;99.90;;;;;;5021709;28;20399;-83
2022/12/29 01:56:59;;;;;;;4.32;3.55;;;10.40;99.90;;;;;;5010866;28;20492;-84
2022/12/29 01:59:30;;;;;;;3.80;3.05;;;10.40;99.90;;;;;;5026249;28;20384;-84
2022/12/29 02:01:56;;;;;;;4.05;3.65;;;10.40;99.90;;;;;;5024376;28;20484;-84
2022/12/29 02:04:24;;;;;;;3.60;3.22;;;10.30;99.90;;;;;;5025775;28;20056;-84
2022/12/29 02:06:55;;;;;;;3.38;3.08;;;10.40;99.90;;;;;;5009427;28;20577;-83
2022/12/29 02:09:21;;;;;;;3.92;3.20;;;10.40;99.90;;;;;;5011438;28;20076;-84
2022/12/29 02:11:49;;;;;;;3.40;3.10;;;10.40;99.90;;;;;;5023179;28;20187;-84
2022/12/29 02:14:14;;;;;;;3.83;3.42;;;10.40;99.90;;;;;;5016212;28;20141;-84
2022/12/29 02:17:00;;;;;;;4.07;3.20;;;10.40;99.90;;;;;;5007393;28;20053;-83
2022/12/29 02:19:29;;;;;;;3.88;3.40;;;10.40;99.90;;;;;;5037453;28;20049;-84
2022/12/29 02:22:19;;;;;;;5.70;3.35;;;10.70;99.90;;;;;;5015752;28;20578;-83
2022/12/29 02:25:09;;;;;;;3.95;3.20;;;10.50;99.90;;;;;;5028268;28;20471;-84
2022/12/29 02:27:44;;;;;;;4.88;3.08;;;10.50;99.90;;;;;;5017201;28;20057;-83
2022/12/29 02:30:42;;;;;;;3.47;3.17;;;10.40;99.90;;;;;;5010714;28;20061;-83
2022/12/29 02:33:22;;;;;;;3.67;2.92;;;10.40;99.90;;;;;;5024272;28;20514;-83
2022/12/29 02:36:19;;;;;;;5.30;3.10;;;10.40;99.90;;;;;;5018880;28;20045;-84
2022/12/29 02:38:56;;;;;;;3.65;2.70;;;10.40;99.90;;;;;;5024133;28;20057;-83
2022/12/29 02:41:36;;;;;;;4.88;3.33;;;10.30;99.90;;;;;;5027277;28;20060;-85
2022/12/29 02:44:27;;;;;;;4.25;3.03;;;10.30;99.90;;;;;;5029423;28;20041;-82
2022/12/29 02:47:00;;;;;;;5.05;2.85;;;10.30;99.90;;;;;;5020453;28;20057;-83
2022/12/29 02:49:34;;;;;;;4.90;2.70;;;10.20;99.90;;;;;;5012143;28;20046;-83
2022/12/29 02:52:25;;;;;;;3.47;2.78;;;10.20;99.90;;;;;;5013502;28;20048;-83
2022/12/29 02:54:54;;;;;;;3.13;2.83;;;10.20;99.90;;;;;;5026894;28;20571;-85
2022/12/29 02:57:22;;;;;;;2.88;2.55;;;10.20;99.90;;;;;;5026557;28;20128;-84
2022/12/29 02:59:53;;;;;;;2.60;2.40;;;10.20;99.90;;;;;;5012436;28;20049;-84
2022/12/29 03:02:28;;;;;;;2.75;2.55;;;10.30;99.90;;;;;;5023704;28;20462;-84
2022/12/29 03:05:11;;;;;;;2.67;2.47;;;10.20;99.90;;;;;;5024539;28;20042;-83
2022/12/29 03:07:50;;;;;;;2.45;2.08;;;10.20;99.90;;;;;;5015642;28;20045;-83
2022/12/29 03:10:37;;;;;;;4.30;2.20;;;10.20;99.90;;;;;;5028345;28;20053;-83
2022/12/29 03:16:09;;;;;;;2.50;2.15;;;10.20;99.90;;;;;;5020596;28;20050;-83
2022/12/29 03:18:54;;;;;;;1.92;1.80;;;10.20;99.90;;;;;;5018113;28;20093;-82
2022/12/29 03:24:41;;;;;;;1.80;1.70;;;10.20;99.90;;;;;;5024576;28;20089;-83
2022/12/29 03:27:10;;;;;;;1.75;1.65;;;10.20;99.90;;;;;;5012243;28;20128;-84
2022/12/29 03:29:41;;;;;;;1.95;1.80;;;10.20;99.90;;;;;;5028252;28;20462;-83
2022/12/29 03:32:09;;;;;;;2.75;1.60;;;10.20;99.90;;;;;;5010557;28;20092;-83
2022/12/29 03:34:36;;;;;;;2.78;1.73;;;10.20;99.90;;;;;;5011583;28;20487;-83
2022/12/29 03:37:15;;;;;;;2.42;2.13;;;10.20;99.90;;;;;;5023042;28;20072;-83
2022/12/29 03:39:41;;;;;;;1.70;1.60;;;10.30;99.90;;;;;;5014342;28;20088;-84
2022/12/29 03:42:14;;;;;;;2.20;2.00;;;10.30;99.90;;;;;;5010829;28;20084;-83
2022/12/29 03:44:42;;;;;;;4.00;1.63;;;10.20;99.90;;;;;;5027559;28;20037;-83
2022/12/29 03:47:11;;;;;;;2.13;1.45;;;10.20;99.90;;;;;;5022911;28;21011;-84
2022/12/29 03:49:36;;;;;;;1.73;1.60;;;10.20;99.90;;;;;;5019141;28;20049;-83
2022/12/29 03:52:03;;;;;;;3.40;1.80;;;10.20;99.90;;;;;;5026371;28;20037;-83
2022/12/29 03:54:29;;;;;;;4.07;2.22;;;10.20;99.90;;;;;;5028003;28;20041;-83
2022/12/29 03:56:54;;;;;;;5.10;2.08;;;10.20;99.90;;;;;;5009890;28;20549;-83
2022/12/29 03:59:20;;;;;;;3.85;1.75;;;10.30;99.90;;;;;;5027216;28;20096;-83
2022/12/29 04:01:46;;;;;;;3.47;2.05;;;10.30;99.90;;;;;;5024204;28;20049;-83
2022/12/29 04:04:12;;;;;;;4.65;2.20;;;10.20;99.90;;;;;;5023707;28;20089;-83
2022/12/29 04:06:37;;;;;;;4.22;1.98;;;10.20;99.90;;;;;;5020409;28;20046;-83
2022/12/29 04:09:03;;;;;;;2.97;1.40;;;10.10;99.90;;;;;;5018584;28;20052;-84
2022/12/29 04:11:29;;;;;;;3.30;1.77;;;10.00;99.90;;;;;;5018962;28;20115;-83
2022/12/29 04:13:54;;;;;;;3.65;1.55;;;10.00;99.90;;;;;;5019794;28;20065;-84
2022/12/29 04:16:20;;;;;;;2.13;1.40;;;10.00;99.90;;;;;;5015343;28;20046;-83
2022/12/29 04:18:45;;;;;;;3.25;1.30;;;10.00;99.90;;;;;;5023901;28;20103;-83
2022/12/29 04:21:13;;;;;;;4.65;1.30;;;9.90;99.90;;;;;;5015633;28;20108;-85
2022/12/29 04:23:45;;;;;;;2.60;1.20;;;9.90;99.90;;;;;;5007451;28;20061;-83
2022/12/29 04:26:16;;;;;;;1.52;1.42;;;9.90;99.90;;;;;;5008258;28;20042;-83
2022/12/29 04:28:45;;;;;;;4.45;1.70;;;9.90;99.90;;;;;;5024324;28;20476;-83
2022/12/29 04:31:10;;;;;;;2.50;1.90;;;9.80;99.90;;;;;;5027987;28;20146;-83
2022/12/29 04:33:36;;;;;;;2.25;1.50;;;9.80;99.90;;;;;;5023234;28;20183;-83
2022/12/29 04:36:05;;;;;;;2.05;1.80;;;9.80;99.90;;;;;;5012177;28;20056;-83
2022/12/29 04:38:33;;;;;;;3.80;1.70;;;9.80;99.90;;;;;;5016066;28;20107;-83
2022/12/29 04:41:00;;;;;;;2.28;1.42;;;9.70;99.90;;;;;;5027329;28;20296;-84
2022/12/29 04:43:28;;;;;;;3.65;1.80;;;9.70;99.90;;;;;;5019742;28;20053;-83
2022/12/29 04:45:53;;;;;;;3.58;1.83;;;9.70;99.90;;;;;;5016578;28;20045;-83
2022/12/29 04:48:19;;;;;;;4.47;1.75;;;9.60;99.90;;;;;;5016668;28;20820;-86
2022/12/29 04:50:50;;;;;;;3.13;1.45;;;9.70;99.90;;;;;;5010418;28;20053;-84
2022/12/29 04:53:17;;;;;;;5.63;1.52;;;9.70;99.90;;;;;;5030607;28;20108;-84
2022/12/29 04:55:42;;;;;;;5.30;1.50;;;9.70;99.90;;;;;;5022706;28;20046;-82
2022/12/29 04:58:08;;;;;;;5.57;1.50;;;9.70;99.90;;;;;;5025475;28;20048;-83
2022/12/29 05:00:34;;;;;;;6.45;1.67;;;9.70;99.90;;;;;;5025814;28;20045;-83
2022/12/29 05:03:00;;;;;;;7.82;2.13;;;9.70;99.90;;;;;;5015711;28;20103;-82
2022/12/29 05:05:25;;;;;;;5.18;1.42;;;9.70;99.90;;;;;;5012626;28;20049;-83
2022/12/29 05:07:51;;;;;;;4.28;1.40;;;10.00;99.90;;;;;;5023413;28;20057;-83
2022/12/29 05:10:17;;;;;;;5.43;1.45;;;9.60;99.90;;;;;;5002578;28;20049;-83
2022/12/29 05:12:43;;;;;;;4.80;1.65;;;9.90;99.90;;;;;;5013117;28;20046;-83
2022/12/29 05:15:10;;;;;;;4.78;1.50;;;9.50;99.90;;;;;;5002892;28;20092;-83
2022/12/29 05:17:36;;;;;;;5.03;1.13;;;9.50;99.90;;;;;;5010076;28;20442;-84
2022/12/29 05:20:01;;;;;;;5.50;1.48;;;9.50;99.90;;;;;;5029611;28;20045;-85
2022/12/29 05:22:30;;;;;;;5.13;1.38;;;9.50;99.90;;;;;;5031701;28;20141;-83
2022/12/29 05:24:56;;;;;;;5.72;1.65;;;9.50;99.90;;;;;;5031009;28;20531;-84
2022/12/29 05:27:21;;;;;;;6.05;1.60;;;9.50;99.90;;;;;;5012947;28;20103;-84
2022/12/29 05:29:47;;;;;;;5.30;1.30;;;9.50;99.90;;;;;;5030008;28;20053;-83
2022/12/29 05:32:13;;;;;;;10.63;1.67;;;9.50;99.90;;;;;;5019298;28;20042;-83
2022/12/29 05:34:38;;;;;;;4.25;1.48;;;9.40;99.90;;;;;;5015438;28;20057;-83
2022/12/29 05:37:04;;;;;;;4.10;1.45;;;9.40;99.90;;;;;;5013081;28;20054;-83
2022/12/29 05:39:30;;;;;;;4.45;2.08;;;9.40;99.90;;;;;;5014781;28;20053;-83
2022/12/29 05:41:55;;;;;;;3.20;1.42;;;9.40;99.90;;;;;;5029318;28;20052;-83
2022/12/29 05:44:21;;;;;;;7.57;2.13;;;9.40;99.90;;;;;;5022682;28;20053;-83
2022/12/29 05:46:46;;;;;;;4.75;1.50;;;9.40;99.90;;;;;;5016347;28;20041;-83
2022/12/29 05:49:12;;;;;;;3.90;1.40;;;9.40;99.90;;;;;;5022167;28;20053;-83
2022/12/29 05:51:38;;;;;;;5.65;2.00;;;9.40;99.90;;;;;;5012241;28;20107;-83
2022/12/29 05:54:03;;;;;;;4.82;1.73;;;9.40;99.90;;;;;;5021382;28;20045;-83
2022/12/29 05:56:29;;;;;;;3.65;1.60;;;9.40;99.90;;;;;;5029826;28;20416;-83
2022/12/29 05:58:54;;;;;;;5.30;1.92;;;9.40;99.90;;;;;;5024955;28;20045;-83
2022/12/29 06:01:20;;;;;;;5.55;1.88;;;9.40;99.90;;;;;;5029625;28;20088;-83
2022/12/29 06:03:46;;;;;;;4.28;1.80;;;9.40;99.90;;;;;;5024572;28;20499;-83
2022/12/29 06:06:11;;;;;;;4.05;1.50;;;9.40;99.90;;;;;;5018712;28;20045;-83
2022/12/29 06:08:37;;;;;;;4.75;1.50;;;9.40;99.90;;;;;;5018650;28;20038;-84
2022/12/29 06:11:02;;;;;;;4.88;1.58;;;9.40;99.90;;;;;;5027602;28;20048;-83
2022/12/29 06:13:28;;;;;;;7.53;1.75;;;9.40;99.90;;;;;;5023537;28;20045;-83
2022/12/29 06:15:54;;;;;;;8.57;2.28;;;9.40;99.90;;;;;;5021393;28;20049;-83
2022/12/29 06:18:19;;;;;;;4.38;1.95;;;9.40;99.90;;;;;;5024062;28;20046;-83
2022/12/29 06:20:45;;;;;;;5.40;1.90;;;9.40;99.90;;;;;;5009739;28;20494;-84
2022/12/29 06:23:12;;;;;;;8.55;2.58;;;9.40;99.90;;;;;;5021985;28;20046;-84
2022/12/29 06:25:38;;;;;;;6.97;2.38;;;9.40;99.90;;;;;;5025345;28;20132;-84
2022/12/29 06:28:05;;;;;;;5.65;1.60;;;9.50;99.90;;;;;;5017899;28;20169;-84
2022/12/29 06:30:31;;;;;;;6.68;1.80;;;10.00;99.90;;;;;;5027824;28;20060;-84
2022/12/29 06:32:58;;;;;;;7.07;1.98;;;9.60;99.90;;;;;;5027199;28;20049;-81
2022/12/29 06:35:24;;;;;;;4.35;1.20;;;9.60;99.90;;;;;;5017228;28;20046;-83
2022/12/29 06:37:49;;;;;;;8.68;2.17;;;9.60;99.90;;;;;;5011239;28;20045;-83
2022/12/29 06:40:15;;;;;;;7.70;1.70;;;9.70;99.90;;;;;;5025076;28;20073;-84
2022/12/29 06:42:41;;;;;;;4.10;1.83;;;9.60;99.90;;;;;;5022679;28;20045;-83
2022/12/29 06:45:07;;;;;;;7.38;1.42;;;9.70;99.90;;;;;;5027681;28;20850;-84
2022/12/29 06:47:33;;;;;;;11.00;1.98;;;9.70;99.90;;;;;;5019979;28;20492;-83
2022/12/29 06:49:59;;;;;;;7.28;1.58;;;9.70;99.90;;;;;;5030038;28;20077;-84
2022/12/29 06:52:25;;;;;;;8.98;2.30;;;9.90;99.90;;;;;;5028150;28;20065;-83
2022/12/29 06:54:50;;;;;;;6.55;1.40;;;9.70;99.90;;;;;;5010511;28;20191;-83
2022/12/29 06:57:16;;;;;;;8.52;1.98;;;9.70;99.90;;;;;;5021478;28;20041;-83
2022/12/29 06:59:41;;;;;;;6.57;1.73;;;9.70;99.90;;;;;;5029303;28;20047;-85
2022/12/29 07:02:10;;;;;;;6.10;1.38;;;9.70;99.90;;;;;;5028957;28;20046;-86
2022/12/29 07:04:35;;;;;;;10.10;1.90;;;9.60;99.90;;;;;;5029136;28;20045;-84
2022/12/29 07:07:01;;;;;;;5.10;1.88;;;9.60;99.90;;;;;;5028948;28;20045;-85
2022/12/29 07:09:26;;;;;;;4.95;1.58;;;9.60;99.90;;;;;;5028805;28;20054;-85
2022/12/29 07:11:52;;;;;;;6.53;1.80;;;9.60;99.90;;;;;;5018426;28;20109;-84
2022/12/29 07:14:17;;;;;;;6.60;1.67;;;9.60;99.90;;;;;;5022243;28;20048;-84
2022/12/29 07:16:44;;;;;;;6.95;1.88;;;9.60;99.90;;;;;;5028957;28;20464;-86
2022/12/29 07:19:09;;;;;;;8.18;2.40;;;9.70;99.90;;;;;;5027038;28;20408;-85
2022/12/29 07:21:35;;;;;;;6.85;1.70;;;9.70;99.90;;;;;;5009734;28;20053;-84
2022/12/29 07:24:01;;;;;;;9.02;2.17;;;9.70;99.90;;;;;;5029818;28;20373;-84
2022/12/29 07:26:26;;;;;;;5.45;1.88;;;9.60;99.90;;;;;;4994455;28;20046;-84
2022/12/29 07:28:52;;;;;;;6.10;1.95;;;9.60;99.90;;;;;;5028310;28;20057;-83
2022/12/29 07:31:21;;;;;;;7.05;2.03;;;9.70;99.90;;;;;;5026587;28;20435;-82
2022/12/29 07:33:47;;;;;;;30.77;2.72;;;9.70;99.90;;;;;;5011067;28;20156;-82
2022/12/29 07:36:13;;;;;;;7.47;1.77;;;9.60;99.90;;;;;;5021546;28;20586;-81
2022/12/29 07:38:39;;;;;;;8.85;1.70;;;9.60;99.90;;;;;;5028055;28;20057;-83
2022/12/29 07:41:05;;;;;;;9.68;2.00;;;9.60;99.90;;;;;;5023162;28;20553;-83
2022/12/29 07:43:31;;;;;;;9.05;2.10;;;9.60;99.90;;;;;;5009091;28;20042;-83
2022/12/29 07:45:57;;;;;;;8.77;2.35;;;;;;;;;;5020603;28;20487;-83
2022/12/29 07:48:23;;;;;;;6.22;1.92;;;;;;;;;;5011829;28;20052;-82
2022/12/29 07:50:49;;;;;;;6.47;1.92;;;;;;;;;;5027910;28;20050;-83
2022/12/29 07:53:15;;;;;;;10.13;2.53;;;;;;;;;;5027524;28;20130;-82
2022/12/29 07:55:41;;;;;;;7.70;1.83;;;;;;;;;;5018946;28;20050;-81
2022/12/29 07:58:10;;;;;;;8.88;1.98;;;9.60;99.90;;;;;;5014445;28;20050;-83
2022/12/29 08:00:35;;;;;;;7.88;1.70;;;9.60;99.90;;;;;;5020717;28;20049;-82
2022/12/29 08:03:01;;;;;;;8.10;1.65;;;9.50;99.90;;;;;;5027571;28;20155;-82
2022/12/29 08:05:27;;;;;;;8.30;1.88;;;9.50;99.90;;;;;;5028813;28;20046;-82
2022/12/29 08:07:52;;;;;;;11.07;2.67;;;9.50;99.90;;;;;;5027016;28;20053;-83
2022/12/29 08:10:18;;;;;;;8.25;2.20;;;10.00;99.90;;;;;;5027112;28;20128;-82
2022/12/29 08:12:43;;;;;;;9.73;1.98;;;9.50;99.90;;;;;;5026664;28;20041;-83
2022/12/29 08:15:11;;;;;;;10.10;2.10;;;9.50;99.90;;;;;;5009433;28;20128;-83
2022/12/29 08:17:37;;;;;;;10.98;2.45;;;9.50;99.90;;;;;;5011922;28;20089;-84
2022/12/29 08:20:03;;;;;;;8.40;2.00;;;9.40;99.90;;;;;;5013325;28;20084;-84
2022/12/29 08:22:29;;;;;;;8.68;2.97;;;9.50;99.90;;;;;;5027355;28;20125;-83
2022/12/29 08:24:55;;;;;;;6.20;1.95;;;9.50;99.90;;;;;;5027251;28;20510;-83
2022/12/29 08:27:20;;;;;;;11.88;2.33;;;9.60;99.90;;;;;;5026704;28;20452;-84
2022/12/29 08:29:46;;;;;;;7.38;2.42;;;9.60;99.90;;;;;;5026994;28;20058;-83
2022/12/29 08:32:12;;;;;;;12.70;2.40;;;9.70;99.90;;;;;;5026567;28;21542;-83
2022/12/29 08:34:38;;;;;;;11.85;2.53;;;9.60;99.90;;;;;;5026586;28;20079;-83
2022/12/29 08:37:04;;;;;;;11.95;2.83;;;9.60;99.90;;;;;;5021505;28;20507;-83
2022/12/29 08:39:31;;;;;;;8.35;2.10;;;9.60;99.90;;;;;;5007173;28;20056;-83
2022/12/29 08:41:57;;;;;;;9.75;2.30;;;9.60;99.90;;;;;;5006390;28;20113;-83
2022/12/29 08:44:23;;;;;;;9.18;2.60;;;9.60;99.90;;;;;;4989516;28;20030;-83
2022/12/29 08:46:48;;;;;;;15.25;3.20;;;9.60;99.90;;;;;;5005427;28;20042;-85
2022/12/29 08:49:14;;;;;;;7.53;2.03;;;9.60;99.90;;;;;;5005788;28;20127;-82
2022/12/29 08:51:40;;;;;;;11.00;2.65;;;9.60;99.90;;;;;;5006536;28;20407;-85
2022/12/29 08:54:05;;;;;;;6.57;2.15;;;9.60;99.90;;;;;;5007664;28;20046;-83
2022/12/29 08:56:31;;;;;;;13.20;3.13;;;9.70;99.90;;;;;;5007084;28;20057;-82
2022/12/29 08:58:57;;;;;;;8.68;1.85;;;9.70;99.90;;;;;;5006950;28;20054;-82
2022/12/29 09:01:22;;;;;;;14.68;2.83;;;9.70;99.90;;;;;;5008414;28;20037;-83
2022/12/29 09:03:52;;;;;;;10.77;2.00;;;9.70;99.90;;;;;;5006961;28;20042;-83
2022/12/29 09:06:18;;;;;;;8.35;1.88;;;9.70;99.90;;;;;;5008469;28;20038;-82
2022/12/29 09:08:44;;;;;;;10.20;2.25;;;9.70;99.90;;;;;;5012023;28;20067;-83
2022/12/29 09:11:14;;;;;;;13.32;2.60;;;9.70;99.90;;;;;;5006755;28;20129;-82
2022/12/29 09:13:40;;;;;;;7.68;2.42;;;9.70;99.90;;;;;;5026762;28;20049;-82
2022/12/29 09:16:05;;;;;;;7.93;1.80;;;9.70;99.90;;;;;;5026267;28;20818;-82
2022/12/29 09:18:31;;;;;;;7.88;1.90;;;9.70;99.90;;;;;;5028028;28;20605;-84
2022/12/29 09:21:01;;;;;;;12.27;2.40;;;;;;;;;;5026797;28;20407;-84
2022/12/29 09:23:27;;;;;;;11.25;2.72;;;9.60;99.90;;;;;;5023062;28;20497;-82
2022/12/29 09:25:53;;;;;;;8.57;2.10;;;9.20;99.90;;;;;;5027273;28;20045;-81
2022/12/29 09:28:20;;;;;;;9.77;2.20;;;10.20;99.90;;;;;;5009243;28;20053;-82
2022/12/29 09:30:46;;;;;;;9.90;2.95;;;9.30;99.90;;;;;;5010056;28;20099;-83
2022/12/29 09:33:11;;;;;;;6.97;1.92;;;9.30;99.90;;;;;;5011824;28;20054;-82
2022/12/29 09:35:37;;;;;;;10.48;2.17;;;9.30;99.90;;;;;;5008569;28;20056;-82
2022/12/29 09:38:03;;;;;;;14.00;2.65;;;9.30;99.90;;;;;;5027910;28;20123;-82
2022/12/29 09:40:31;;;;;;;8.32;3.15;;;9.30;99.90;;;;;;5026244;28;20142;-82
2022/12/29 09:43:19;;;;;;;7.72;2.15;;;9.40;99.90;;;;;;5005815;28;20115;-82
2022/12/29 09:46:00;;;;;;;6.82;2.05;;;9.30;99.90;;;;;;5008059;28;20056;-82
2022/12/29 09:48:39;;;;;;;7.20;2.47;;;9.30;99.90;;;;;;5009453;28;20054;-82
2022/12/29 09:51:12;;;;;;;6.95;1.98;;;9.20;99.90;;;;;;5027549;28;20091;-82
2022/12/29 09:53:44;;;;;;;9.90;2.58;;;9.20;99.90;;;;;;5027791;28;20034;-82
2022/12/29 09:56:20;;;;;;;8.73;2.40;;;9.20;99.90;;;;;;5026833;28;20120;-81
2022/12/29 09:58:55;;;;;;;12.10;2.25;;;9.20;99.90;;;;;;5027311;28;20809;-81
2022/12/29 10:01:52;;;;;;;8.40;2.30;;;9.10;99.90;;;;;;5026139;28;20512;-81
2022/12/29 10:04:18;;;;;;;12.32;2.90;;;9.10;99.90;;;;;;5023661;28;20038;-81
2022/12/29 10:06:57;;;;;;;8.02;2.10;;;9.10;99.90;;;;;;5011759;28;20037;-81
2022/12/29 10:09:53;;;;;;;7.50;2.20;;;9.80;99.90;;;;;;5012025;28;20484;-81
2022/12/29 10:13:01;;;;;;;8.85;2.22;;;9.10;99.90;;;;;;5010626;28;20042;-84
2022/12/29 10:16:01;;;;;;;8.90;2.10;;;9.00;99.90;;;;;;5017351;28;20056;-83
2022/12/29 10:19:01;;;;;;;8.30;2.13;;;9.00;99.90;;;;;;5030580;28;20477;-84
2022/12/29 10:21:41;;;;;;;7.75;2.40;;;9.00;99.90;;;;;;5010753;28;20062;-84
2022/12/29 10:24:11;;;;;;;11.30;2.65;;;9.10;99.90;;;;;;5013005;28;20037;-83
2022/12/29 10:26:42;;;;;;;8.73;2.05;;;9.10;99.90;;;;;;5012714;28;20435;-86
2022/12/29 10:29:37;;;;;;;9.75;2.80;;;9.00;99.90;;;;;;5029463;28;20338;-86
2022/12/29 10:32:10;;;;;;;8.05;2.33;;;9.00;99.90;;;;;;5010631;28;20054;-84
2022/12/29 10:34:41;;;;;;;;;;;9.00;99.90;;;;;;5010563;28;20845;-87
2022/12/29 10:37:16;;;;;;;8.27;1.90;;;9.00;99.90;;;;;;5010746;28;19928;-86
2022/12/29 10:39:50;;;;;;;10.70;2.28;;;9.00;99.90;;;;;;5009532;28;20164;-86
2022/12/29 10:42:36;;;;;;;6.10;2.10;;;9.00;99.90;;;;;;5008870;28;20046;-84
2022/12/29 10:45:02;;;;;;;9.05;2.38;;;8.90;99.90;;;;;;5009378;28;20129;-86
2022/12/29 10:47:34;;;;;;;10.85;2.47;;;8.60;99.90;;;;;;5009616;28;20045;-83
2022/12/29 10:50:01;;;;;;;6.20;2.13;;;8.80;99.90;;;;;;5023982;28;20045;-83
2022/12/29 10:52:28;;;;;;;7.60;2.10;;;9.70;99.90;;;;;;5010719;28;20420;-85
2022/12/29 10:54:56;;;;;;;11.13;2.50;;;8.70;99.90;;;;;;5010231;28;20065;-85
2022/12/29 10:57:43;;;;;;;7.63;2.33;;;8.80;99.90;;;;;;5019666;28;20057;-85
2022/12/29 11:00:20;;;;;;;4.05;2.10;;;8.80;99.90;;;;;;5030558;28;20129;-83
2022/12/29 11:03:24;;;;;;;9.05;2.05;;;8.80;99.90;;;;;;5030013;28;20096;-82
2022/12/29 11:06:10;;;;;;;7.30;2.47;;;8.80;99.90;;;;;;5008340;28;20050;-82
2022/12/29 11:08:41;;;;;;;5.70;2.00;;;8.80;99.90;;;;;;5010594;28;20049;-83
2022/12/29 11:11:09;;;;;;;9.55;2.40;;;8.90;99.90;;;;;;5029611;28;20049;-82
2022/12/29 11:13:47;;;;;;;7.50;2.65;;;8.90;99.90;;;;;;5028419;28;20077;-81
2022/12/29 11:16:13;;;;;;;7.40;2.40;;;9.00;99.90;;;;;;5027401;28;20053;-82
2022/12/29 11:18:42;;;;;;;5.07;2.47;;;9.10;99.90;;;;;;5027564;28;20060;-83
2022/12/29 11:21:28;;;;;;;10.35;2.25;;;9.00;99.90;;;;;;5029468;28;20056;-85
2022/12/29 11:24:00;;;;;;;7.32;1.77;;;9.10;99.90;;;;;;5026226;28;20411;-83
2022/12/29 11:26:26;;;;;;;10.60;2.08;;;9.10;99.90;;;;;;5028991;28;20573;-84
2022/12/29 11:29:07;;;;;;;6.30;2.03;;;9.10;99.90;;;;;;5035753;28;20057;-83
2022/12/29 11:31:54;;;;;;;9.98;2.30;;;9.10;99.90;;;;;;5043134;28;20060;-82
2022/12/29 11:34:23;;;;;;;10.63;2.45;;;9.10;99.90;;;;;;5028831;28;20092;-86
2022/12/29 11:36:53;;;;;;;8.40;2.40;;;9.20;99.90;;;;;;5027243;28;20068;-83
2022/12/29 11:39:40;;;;;;;9.35;2.15;;;9.20;99.90;;;;;;5016388;28;20849;-83
2022/12/29 11:42:16;;;;;;;9.35;2.33;;;9.20;99.90;;;;;;5021372;28;20522;-83
2022/12/29 11:44:49;;;;;;;10.50;2.80;;;9.20;99.90;;;;;;5032793;28;20046;-82
2022/12/29 11:47:31;;;;;;;11.43;2.72;;;9.30;99.90;;;;;;5027315;28;20060;-84
2022/12/29 11:50:06;;;;;;;10.70;2.67;;;9.40;99.90;;;;;;5025226;28;20069;-84
2022/12/29 11:52:35;;;;;;;11.82;3.03;;;9.40;99.90;;;;;;5007762;28;20045;-83
2022/12/29 11:55:04;;;;;;;10.52;2.00;;;9.50;99.90;;;;;;5009402;28;20088;-82
2022/12/29 11:57:33;;;;;;;12.23;2.83;;;9.50;99.90;;;;;;5007988;28;20132;-83
2022/12/29 12:00:03;;;;;;;8.82;2.40;;;9.50;99.90;;;;;;5023714;28;20042;-81
2022/12/29 12:02:47;;;;;;;9.13;2.83;;;9.50;99.90;;;;;;5027578;28;20091;-81
2022/12/29 12:05:37;;;;;;;11.20;3.50;;;9.50;99.90;;;;;;5020888;28;20049;-82
2022/12/29 12:08:28;;;;;;;12.00;3.40;;;9.50;99.90;;;;;;5007861;28;20049;-84
2022/12/29 12:11:20;;;;;;;9.55;2.65;;;9.50;99.90;;;;;;5011445;28;20042;-83
2022/12/29 12:14:11;;;;;;;11.43;3.05;;;9.50;99.90;;;;;;5018683;28;20197;-83
2022/12/29 12:16:41;;;;;;;11.73;2.58;;;9.50;99.90;;;;;;5016159;28;20046;-83
2022/12/29 12:19:34;;;;;;;10.23;2.75;;;9.40;99.90;;;;;;5023325;28;20041;-82
2022/12/29 12:22:18;;;;;;;9.38;2.53;;;9.30;99.90;;;;;;5001814;28;20905;-84
2022/12/29 12:25:11;;;;;;;12.43;2.30;;;9.20;99.90;;;;;;5014835;28;20120;-82
2022/12/29 12:27:57;;;;;;;14.50;2.72;;;9.20;99.90;;;;;;5012565;28;20042;-82
2022/12/29 12:30:26;;;;;;;10.07;2.80;;;9.30;99.90;;;;;;5024167;28;20056;-83
2022/12/29 12:33:04;;;;;;;12.50;2.83;;;9.20;99.90;;;;;;5008720;28;20055;-81
2022/12/29 12:35:41;;;;;;;13.55;2.97;;;9.20;99.90;;;;;;5026309;28;20057;-81
2022/12/29 12:38:29;;;;;;;11.88;2.95;;;9.20;99.90;;;;;;5025461;28;20045;-80
2022/12/29 12:41:20;;;;;;;12.63;2.97;;;9.20;99.90;;;;;;5025625;28;20467;-80
2022/12/29 12:43:57;;;;;;;14.77;3.10;;;9.10;99.90;;;;;;5025814;28;20155;-80
2022/12/29 12:46:42;;;;;;;12.05;2.92;;;;;;;;;;5027713;28;20133;-82
2022/12/29 12:49:34;;;;;;;15.65;3.35;;;9.30;99.90;;;;;;5028432;28;20211;-82
2022/12/29 12:52:15;;;;;;;10.55;4.28;;;9.30;99.90;;;;;;5026360;28;20054;-85
2022/12/29 12:55:14;;;;;;;15.68;3.30;;;9.00;99.90;;;;;;5027234;28;20156;-81
2022/12/29 12:58:05;;;;;;;13.07;2.78;;;9.30;99.90;;;;;;5007782;28;20097;-81
2022/12/29 13:01:00;;;;;;;13.57;3.30;;;9.00;99.90;;;;;;5022089;28;20116;-82
2022/12/29 13:03:51;;;;;;;20.35;9.30;;;9.20;99.90;;;;;;5028050;28;20886;-81
2022/12/29 13:06:56;;;;;;;12.23;3.42;;;9.30;99.90;;;;;;5028690;28;20057;-82
2022/12/29 13:09:31;;;;;;;19.05;7.20;;;9.30;99.90;;;;;;5025964;28;21787;-80
2022/12/29 13:12:11;;;;;;;12.13;3.10;;;9.30;99.90;;;;;;5016496;28;20376;-81
2022/12/29 13:14:56;;;;;;;7.40;3.03;;;9.30;99.90;;;;;;5006780;28;20072;-80
2022/12/29 13:17:41;;;;;;;10.93;2.22;;;9.30;99.90;;;;;;5007076;28;20056;-81
2022/12/29 13:20:29;;;;;;;9.25;3.10;;;9.30;99.90;;;;;;5008264;28;20427;-81
2022/12/29 13:23:02;;;;;;;12.70;3.80;;;9.30;99.90;;;;;;5021379;28;20049;-81
2022/12/29 13:25:40;;;;;;;12.02;2.75;;;;;;;;;;5012005;28;20050;-80
2022/12/29 13:28:54;;;;;;;12.60;2.88;;;9.30;99.90;;;;;;5026678;28;20053;-81
2022/12/29 13:32:00;;;;;;;12.23;2.78;;;;;;;;;;5009283;28;20104;-81
2022/12/29 13:35:14;;;;;;;13.48;3.28;;;9.20;99.90;;;;;;5007536;28;20529;-81
2022/12/29 13:38:13;;;;;;;10.45;2.47;;;9.10;99.90;;;;;;5024706;28;20064;-80
2022/12/29 13:44:05;;;;;;;11.05;3.20;;;9.60;99.90;;;;;;5026371;28;20060;-81
2022/12/29 13:47:25;;;;;;;;;;;;;;;;;;;;;
2022/12/29 13:50:18;;;;;;;11.27;2.58;;;9.00;99.90;;;;;;5025735;28;20088;-81
2022/12/29 13:53:33;;;;;;;;;;;;;;;;;;;;;
2022/12/29 13:59:57;;;;;;;11.15;2.53;;;9.20;99.90;;;;;;5011775;28;20428;-79
2022/12/29 14:02:45;;;;;;;9.27;2.00;;;10.30;99.90;;;;;;5010484;28;20046;-80
2022/12/29 14:05:33;;;;;;;12.32;4.82;;;9.10;99.90;;;;;;5026321;28;20049;-79